Time;durP1;ratioP1;P1;durP2;ratioP2;P2;SDS_P1;SDS_P2;PMS_P1;PMS_P2;Temp;Humidity;BMP_temperature;BMP_pressure;BME280_temperature;BME280_humidity;BME280_pressure;Samples;Min_cycle;Max_cycle;Signal;HPM_P1;HPM_P2
2022/03/20 00:06:49;;;;;;;19.30;12.90;;;;;;;0.22;37.93;102248.00;446867;1269;163763;-61
2022/03/20 00:16:54;;;;;;;30.00;15.30;;;;;;;0.27;37.62;102242.41;447653;1269;141877;-61
2022/03/20 00:27:01;;;;;;;23.00;15.50;;;;;;;0.21;37.95;102237.27;434096;1270;141494;-60
2022/03/20 00:37:08;;;;;;;25.50;15.40;;;;;;;0.04;38.03;102232.27;446845;1270;142411;-61
2022/03/20 00:47:14;;;;;;;25.50;17.40;;;;;;;-0.15;38.30;102238.40;447592;1269;142347;-62
2022/03/20 00:57:23;;;;;;;21.10;14.10;;;;;;;-0.29;38.40;102238.25;446902;1270;142160;-62
2022/03/20 01:07:29;;;;;;;22.10;15.20;;;;;;;-0.42;38.79;102229.86;444469;1270;141531;-58
2022/03/20 01:17:35;;;;;;;25.20;15.60;;;;;;;-0.53;38.85;102230.43;430795;1270;141701;-60
2022/03/20 01:27:42;;;;;;;22.80;15.90;;;;;;;-0.56;39.12;102230.89;436115;1269;142689;-61
2022/03/20 01:37:48;;;;;;;25.00;17.40;;;;;;;-0.65;39.40;102227.56;447184;1268;143508;-61
2022/03/20 01:47:55;;;;;;;25.50;16.90;;;;;;;-0.73;39.57;102223.77;447569;1269;192581;-61
2022/03/20 01:57:59;;;;;;;;;;;;;;;-0.86;39.81;102218.45;446757;1270;141247;-61
2022/03/20 02:08:06;;;;;;;23.00;14.80;;;;;;;-1.02;40.20;102219.95;447811;1270;129468;-61
2022/03/20 02:18:14;;;;;;;23.20;16.30;;;;;;;-1.18;40.46;102216.25;447439;1269;142345;-61
2022/03/20 02:28:20;;;;;;;24.30;15.20;;;;;;;-1.27;40.68;102211.70;447544;1270;151714;-61
2022/03/20 02:38:26;;;;;;;25.30;14.80;;;;;;;-1.43;40.95;102206.80;447229;1270;141849;-61
2022/03/20 02:48:32;;;;;;;28.80;18.30;;;;;;;-1.60;41.33;102208.39;446817;1270;141957;-65
2022/03/20 02:58:37;;;;;;;28.40;16.80;;;;;;;-1.68;41.50;102201.66;447377;1270;141955;-61
2022/03/20 03:19:06;;;;;;;20.20;14.50;;;;;;;-1.71;41.72;102200.01;446673;1269;141779;-61
2022/03/20 03:29:12;;;;;;;24.00;15.10;;;;;;;-1.70;41.70;102192.81;447509;1269;142126;-61
2022/03/20 03:39:19;;;;;;;21.80;14.10;;;;;;;-1.74;41.69;102193.91;446736;1269;152914;-61
2022/03/20 03:49:23;;;;;;;;;;;;;;;-1.77;41.91;102192.98;447526;1270;142878;-61
2022/03/20 03:59:29;;;;;;;26.60;15.30;;;;;;;-1.79;41.95;102196.00;447748;1269;128363;-61
2022/03/20 04:09:35;;;;;;;21.40;14.20;;;;;;;-1.84;41.95;102202.55;446789;1270;141947;-61
2022/03/20 04:19:41;;;;;;;20.50;12.80;;;;;;;-1.94;42.16;102197.11;447447;1269;141840;-61
2022/03/20 04:29:47;;;;;;;20.20;15.20;;;;;;;-2.07;42.46;102199.66;447476;1269;142082;-60
2022/03/20 04:39:53;;;;;;;25.50;16.90;;;;;;;-2.21;42.77;102204.54;446791;1270;142096;-61
2022/03/20 05:00:23;;;;;;;22.00;15.70;;;;;;;-2.20;43.28;102217.27;439124;1270;142974;-65
2022/03/20 05:20:53;;;;;;;21.00;13.30;;;;;;;-1.85;42.93;102229.15;445147;1269;141087;-61
2022/03/20 05:30:58;;;;;;;20.70;13.50;;;;;;;-1.59;42.68;102231.45;446507;1270;142377;-63
2022/03/20 05:51:30;;;;;;;24.70;16.30;;;;;;;2.15;40.61;102245.30;446639;1269;142367;-64
2022/03/20 06:01:36;;;;;;;20.30;15.80;;;;;;;9.61;34.91;102245.52;447335;1270;142971;-62
2022/03/20 06:11:42;;;;;;;22.60;16.90;;;;;;;14.96;29.69;102234.97;447513;1270;141238;-62
2022/03/20 06:21:48;;;;;;;17.00;15.20;;;;;;;18.03;25.87;102230.05;446623;1270;142238;-62
2022/03/20 06:31:53;;;;;;;18.10;15.40;;;;;;;19.79;23.49;102232.04;439870;1269;195928;-61
2022/03/20 06:42:00;;;;;;;16.30;13.00;;;;;;;21.58;21.59;102229.13;447341;1268;142687;-63
2022/03/20 06:52:06;;;;;;;17.90;14.90;;;;;;;23.03;20.15;102236.64;445769;1269;144551;-61
2022/03/20 07:02:12;;;;;;;14.10;11.90;;;;;;;25.13;18.90;102237.69;447500;1270;141670;-61
2022/03/20 07:12:18;;;;;;;16.00;14.30;;;;;;;26.22;17.39;102236.02;446642;1270;152681;-61
2022/03/20 07:22:24;;;;;;;12.20;11.00;;;;;;;26.86;16.68;102234.31;447295;1269;141965;-62
2022/03/20 07:32:29;;;;;;;12.90;11.60;;;;;;;27.51;15.84;102236.80;447300;1270;142567;-62
2022/03/20 07:42:35;;;;;;;10.10;9.10;;;;;;;28.14;15.25;102232.22;446478;1270;142299;-62
2022/03/20 07:52:41;;;;;;;11.90;9.40;;;;;;;27.06;14.13;102244.86;447384;1269;143423;-62
2022/03/20 08:02:47;;;;;;;10.90;9.80;;;;;;;26.62;14.07;102245.64;447667;1270;142342;-63
2022/03/20 08:12:53;;;;;;;11.40;10.30;;;;;;;26.50;13.61;102251.78;446908;1269;142821;-62
2022/03/20 08:22:59;;;;;;;10.60;9.30;;;;;;;25.85;13.62;102257.80;447216;1270;144468;-62
2022/03/20 08:33:05;;;;;;;11.10;10.00;;;;;;;25.60;13.57;102253.02;447114;1269;141923;-62
2022/03/20 08:43:15;;;;;;;10.90;9.50;;;;;;;26.38;13.66;102253.85;446566;1269;142552;-63
2022/03/20 08:53:22;;;;;;;10.50;9.20;;;;;;;26.00;13.06;102244.67;447430;1268;142564;-62
2022/03/20 09:03:29;;;;;;;11.10;9.60;;;;;;;24.97;12.98;102252.36;446465;1269;146247;-62
2022/03/20 09:13:35;;;;;;;11.10;9.90;;;;;;;17.20;14.97;102256.02;447388;1270;143096;-64
2022/03/20 09:23:41;;;;;;;12.20;9.30;;;;;;;12.36;17.87;102257.71;434078;1271;141727;-62
2022/03/20 09:33:48;;;;;;;9.60;7.90;;;;;;;11.00;18.91;102258.63;443820;1270;143978;-62
2022/03/20 09:43:54;;;;;;;11.70;8.00;;;;;;;9.74;19.38;102262.53;447241;1270;142923;-63
2022/03/20 09:54:01;;;;;;;9.90;8.20;;;;;;;8.80;20.37;102260.70;438702;1271;142298;-65
2022/03/20 10:04:12;;;;;;;15.40;10.80;;;;;;;8.59;21.26;102246.83;446517;1270;141881;-62
2022/03/20 10:14:20;;;;;;;13.70;9.40;;;;;;;8.50;21.56;102246.41;447338;1270;142997;-62
2022/03/20 10:24:29;;;;;;;13.70;8.80;;;;;;;8.38;21.91;102242.34;446517;1270;146288;-63
2022/03/20 10:34:48;;;;;;;9.50;6.70;;;;;;;8.15;22.13;102235.29;447560;1269;144909;-62
2022/03/20 10:45:06;;;;;;;11.40;7.00;;;;;;;7.93;21.84;102234.99;443082;1270;141362;-63
2022/03/20 10:55:15;;;;;;;10.80;7.70;;;;;;;7.80;22.10;102224.68;446678;1269;142365;-62
2022/03/20 11:05:21;;;;;;;16.60;9.20;;;;;;;7.80;21.83;102229.90;447264;1270;140888;-62
2022/03/20 11:15:29;;;;;;;10.20;7.40;;;;;;;7.82;22.38;102213.14;446494;1270;183702;-62
2022/03/20 11:25:41;;;;;;;9.80;8.00;;;;;;;7.79;22.39;102205.14;447137;1270;141253;-62
2022/03/20 11:35:47;;;;;;;10.10;7.80;;;;;;;7.89;22.18;102191.62;447104;1270;142718;-62
2022/03/20 11:46:27;;;;;;;8.90;7.50;;;;;;;8.06;22.42;102183.05;446809;1270;141844;-62
2022/03/20 11:56:34;;;;;;;8.50;7.00;;;;;;;8.16;22.60;102164.11;447528;1269;141540;-62
2022/03/20 12:07:06;;;;;;;9.40;7.30;;;;;;;8.15;22.43;102150.49;446756;1269;175387;-61
2022/03/20 12:17:12;;;;;;;9.10;7.40;;;;;;;8.12;22.06;102145.82;441595;1269;141937;-61
2022/03/20 12:27:46;;;;;;;11.20;8.10;;;;;;;8.10;22.31;102126.13;433452;1269;142084;-59
2022/03/20 12:37:53;;;;;;;11.80;8.20;;;;;;;8.21;22.65;102114.46;444574;1270;145298;-62
2022/03/20 12:48:04;;;;;;;10.10;8.20;;;;;;;8.25;22.70;102105.33;447598;1268;141576;-61
2022/03/20 12:58:15;;;;;;;10.90;8.10;;;;;;;8.37;22.66;102090.52;446970;1268;140842;-61
2022/03/20 13:08:26;;;;;;;11.90;7.90;;;;;;;8.45;22.35;102083.94;447734;1269;142376;-62
2022/03/20 13:18:35;;;;;;;9.80;6.90;;;;;;;8.48;22.39;102080.58;446799;1270;142161;-62
2022/03/20 13:28:41;;;;;;;9.10;7.80;;;;;;;8.56;22.39;102067.38;447799;1270;141962;-62
2022/03/20 13:38:48;;;;;;;6.90;5.90;;;;;;;8.68;22.42;102054.80;447705;1269;141988;-62
2022/03/20 13:48:58;;;;;;;10.10;6.20;;;;;;;8.73;22.04;102043.20;446968;1269;142113;-61
2022/03/20 13:59:06;;;;;;;8.90;6.50;;;;;;;8.74;21.99;102043.17;445215;1270;142396;-60
2022/03/20 14:09:13;;;;;;;10.40;7.00;;;;;;;8.74;22.44;102035.83;447883;1269;141511;-61
2022/03/20 14:19:19;;;;;;;7.90;5.90;;;;;;;8.81;22.29;102034.15;447845;1270;142356;-62
2022/03/20 14:39:46;;;;;;;9.20;6.20;;;;;;;8.80;22.67;102008.66;446928;1269;143797;-62
2022/03/20 14:49:53;;;;;;;8.30;6.80;;;;;;;8.83;22.40;102006.01;447695;1269;142418;-62
2022/03/20 14:59:59;;;;;;;7.30;5.60;;;;;;;8.74;22.61;101999.52;447703;1270;141890;-61
2022/03/20 15:20:29;;;;;;;7.00;6.20;;;;;;;8.65;23.09;101982.23;447865;1269;144988;-62
2022/03/20 15:30:36;;;;;;;6.70;5.00;;;;;;;8.61;23.17;101976.52;447136;1270;142533;-62
2022/03/20 15:40:42;;;;;;;11.00;6.20;;;;;;;8.51;23.25;101973.54;447702;1270;142151;-61
2022/03/20 15:50:48;;;;;;;7.10;6.40;;;;;;;8.36;23.17;101972.89;447783;1269;142583;-61
2022/03/20 16:00:55;;;;;;;7.50;5.10;;;;;;;8.12;23.83;101969.25;447018;1270;142339;-61
2022/03/20 16:11:01;;;;;;;8.20;6.60;;;;;;;7.90;23.99;101964.52;443919;1269;141203;-59
2022/03/20 16:21:08;;;;;;;9.10;7.00;;;;;;;7.70;24.35;101969.01;445950;1269;141080;-61
2022/03/20 16:31:15;;;;;;;8.60;7.40;;;;;;;7.39;24.75;101975.33;446803;1270;142219;-61
2022/03/20 16:41:23;;;;;;;10.10;8.00;;;;;;;7.11;25.15;101985.40;447363;1270;141835;-61
2022/03/20 16:51:31;;;;;;;11.80;7.40;;;;;;;6.72;25.73;101977.45;446370;1269;141992;-61
2022/03/20 17:01:37;;;;;;;13.40;8.50;;;;;;;6.39;26.29;101968.70;447333;1269;142966;-62
2022/03/20 17:11:43;;;;;;;10.60;8.60;;;;;;;6.00;26.75;101966.88;447537;1270;143020;-61
2022/03/20 17:21:49;;;;;;;14.00;10.10;;;;;;;5.66;27.29;101972.80;446779;1269;142570;-61
2022/03/20 17:31:55;;;;;;;21.30;11.90;;;;;;;5.31;27.80;101970.02;447666;1269;142182;-61
2022/03/20 17:42:02;;;;;;;14.00;10.00;;;;;;;5.11;28.04;101971.99;447678;1269;142148;-61
2022/03/20 17:52:28;;;;;;;16.10;10.60;;;;;;;4.90;28.44;101972.89;447475;1270;142065;-62
2022/03/20 18:13:04;;;;;;;16.50;10.90;;;;;;;4.72;28.96;101972.92;446804;1268;141864;-62
2022/03/20 18:23:11;;;;;;;15.00;11.20;;;;;;;4.63;29.15;101980.92;447558;1270;143116;-62
2022/03/20 18:33:17;;;;;;;15.70;10.70;;;;;;;4.56;28.97;101983.70;444159;1270;142811;-63
2022/03/20 18:43:25;;;;;;;18.50;11.40;;;;;;;4.52;29.41;101980.41;447065;1271;142353;-62
2022/03/20 18:53:30;;;;;;;19.00;12.80;;;;;;;4.38;29.50;101984.92;447468;1269;144859;-62
2022/03/20 19:03:38;;;;;;;25.10;13.40;;;;;;;4.22;29.81;101990.98;446850;1269;160921;-62
2022/03/20 19:13:44;;;;;;;16.60;11.90;;;;;;;3.99;30.15;101992.50;441184;1269;142351;-62
2022/03/20 19:23:50;;;;;;;19.10;13.60;;;;;;;3.75;30.49;102000.06;447760;1269;141871;-61
2022/03/20 19:44:16;;;;;;;21.90;14.60;;;;;;;3.26;30.99;102013.02;447410;1269;141977;-62
2022/03/20 19:54:22;;;;;;;22.00;14.30;;;;;;;3.08;31.41;102015.87;446866;1269;142745;-61
2022/03/20 20:04:29;;;;;;;23.20;14.60;;;;;;;2.93;31.78;102015.78;447604;1270;141121;-61
2022/03/20 20:14:48;;;;;;;25.70;17.10;;;;;;;2.79;31.97;102014.80;447702;1269;143409;-62
2022/03/20 20:24:54;;;;;;;28.20;16.60;;;;;;;2.57;32.36;102012.39;443959;1269;142418;-60
2022/03/20 20:35:00;;;;;;;25.80;16.20;;;;;;;2.40;32.66;102010.19;443742;1268;141590;-61
2022/03/20 20:45:08;;;;;;;27.50;16.70;;;;;;;2.25;32.88;102013.33;447703;1270;142160;-62
2022/03/20 20:55:14;;;;;;;28.30;17.90;;;;;;;2.02;33.26;102019.50;446287;1269;140453;-61
2022/03/20 21:05:21;;;;;;;25.70;15.90;;;;;;;1.81;33.66;102016.67;447868;1269;141955;-61
2022/03/20 21:15:26;;;;;;;28.00;17.40;;;;;;;1.70;33.83;102013.96;446860;1269;141830;-62
2022/03/20 21:25:32;;;;;;;25.30;17.00;;;;;;;1.62;33.99;102007.64;447699;1268;141577;-62
2022/03/20 21:35:38;;;;;;;27.00;15.50;;;;;;;1.47;34.15;102003.15;447749;1269;141126;-62
2022/03/20 21:45:44;;;;;;;19.10;15.00;;;;;;;1.33;34.56;102005.55;446795;1269;142104;-61
2022/03/20 21:55:51;;;;;;;24.20;15.50;;;;;;;1.16;34.83;102008.44;443824;1269;142003;-61
2022/03/20 22:05:56;;;;;;;21.60;14.30;;;;;;;1.00;35.10;102005.80;436383;1269;143156;-60
2022/03/20 22:16:02;;;;;;;21.60;14.20;;;;;;;0.81;35.47;102008.97;441312;1269;141742;-61
2022/03/20 22:26:10;;;;;;;21.30;15.40;;;;;;;0.68;35.92;102009.46;447619;1270;142427;-62
2022/03/20 22:46:39;;;;;;;28.80;16.80;;;;;;;0.40;36.62;102003.83;433287;1270;127249;-61
2022/03/20 22:56:44;;;;;;;;;;;;;;;0.31;36.62;102006.44;431767;1270;141729;-62
2022/03/20 23:06:49;;;;;;;26.50;16.30;;;;;;;0.21;37.03;102010.39;443566;1269;129568;-62
2022/03/20 23:16:55;;;;;;;27.00;15.20;;;;;;;0.17;37.18;102008.08;441101;1270;141719;-62
2022/03/20 23:27:01;;;;;;;22.90;13.90;;;;;;;0.23;37.37;102009.05;434946;1270;141551;-62
2022/03/20 23:37:07;;;;;;;22.40;14.40;;;;;;;0.19;37.53;101999.52;432143;1270;142296;-60
2022/03/20 23:47:13;;;;;;;21.40;13.10;;;;;;;0.21;37.48;101991.80;435465;1270;140687;-61
2022/03/20 23:57:19;;;;;;;24.50;13.10;;;;;;;0.20;37.78;101991.60;432578;1269;169083;-63
